sensor_id;sensor_type;location;lat;lon;timestamp;P1;durP1;ratioP1;P2;durP2;ratioP2
39968;SDS011;25648;47.808;19.004;2022-10-16T00:00:34;25.30;;;15.70;;
39968;SDS011;25648;47.808;19.004;2022-10-16T00:03:02;20.80;;;14.80;;
39968;SDS011;25648;47.808;19.004;2022-10-16T00:05:28;20.45;;;15.05;;
39968;SDS011;25648;47.808;19.004;2022-10-16T00:07:54;20.55;;;14.65;;
39968;SDS011;25648;47.808;19.004;2022-10-16T00:10:20;22.02;;;13.52;;
39968;SDS011;25648;47.808;19.004;2022-10-16T00:12:46;21.25;;;13.05;;
39968;SDS011;25648;47.808;19.004;2022-10-16T00:15:11;19.73;;;13.05;;
39968;SDS011;25648;47.808;19.004;2022-10-16T00:17:37;18.75;;;13.07;;
39968;SDS011;25648;47.808;19.004;2022-10-16T00:20:03;17.10;;;12.80;;
39968;SDS011;25648;47.808;19.004;2022-10-16T00:22:30;18.35;;;12.43;;
39968;SDS011;25648;47.808;19.004;2022-10-16T00:24:55;15.80;;;11.98;;
39968;SDS011;25648;47.808;19.004;2022-10-16T00:27:21;18.02;;;12.57;;
39968;SDS011;25648;47.808;19.004;2022-10-16T00:29:50;19.02;;;12.77;;
39968;SDS011;25648;47.808;19.004;2022-10-16T00:32:17;17.70;;;12.88;;
39968;SDS011;25648;47.808;19.004;2022-10-16T00:34:43;16.58;;;12.93;;
39968;SDS011;25648;47.808;19.004;2022-10-16T00:37:09;20.27;;;13.25;;
39968;SDS011;25648;47.808;19.004;2022-10-16T00:39:35;18.65;;;12.30;;
39968;SDS011;25648;47.808;19.004;2022-10-16T00:42:00;19.75;;;12.38;;
39968;SDS011;25648;47.808;19.004;2022-10-16T00:47:17;17.40;;;12.20;;
39968;SDS011;25648;47.808;19.004;2022-10-16T00:49:47;20.42;;;12.48;;
39968;SDS011;25648;47.808;19.004;2022-10-16T00:52:14;17.60;;;12.10;;
39968;SDS011;25648;47.808;19.004;2022-10-16T00:54:41;16.25;;;11.15;;
39968;SDS011;25648;47.808;19.004;2022-10-16T00:57:07;16.70;;;10.57;;
39968;SDS011;25648;47.808;19.004;2022-10-16T00:59:37;16.48;;;10.65;;
39968;SDS011;25648;47.808;19.004;2022-10-16T01:02:06;15.77;;;10.95;;
39968;SDS011;25648;47.808;19.004;2022-10-16T01:04:46;16.80;;;10.75;;
39968;SDS011;25648;47.808;19.004;2022-10-16T01:12:39;22.50;;;12.43;;
39968;SDS011;25648;47.808;19.004;2022-10-16T01:17:43;21.63;;;12.15;;
39968;SDS011;25648;47.808;19.004;2022-10-16T01:25:39;16.00;;;12.27;;
39968;SDS011;25648;47.808;19.004;2022-10-16T01:28:19;17.63;;;11.40;;
39968;SDS011;25648;47.808;19.004;2022-10-16T01:30:47;18.33;;;12.15;;
39968;SDS011;25648;47.808;19.004;2022-10-16T01:33:20;17.40;;;11.38;;
39968;SDS011;25648;47.808;19.004;2022-10-16T01:35:53;16.25;;;11.82;;
39968;SDS011;25648;47.808;19.004;2022-10-16T01:38:34;15.93;;;10.88;;
39968;SDS011;25648;47.808;19.004;2022-10-16T01:43:42;16.48;;;10.80;;
39968;SDS011;25648;47.808;19.004;2022-10-16T01:46:13;15.35;;;10.88;;
39968;SDS011;25648;47.808;19.004;2022-10-16T01:48:40;16.85;;;10.02;;
39968;SDS011;25648;47.808;19.004;2022-10-16T01:51:07;14.73;;;10.45;;
39968;SDS011;25648;47.808;19.004;2022-10-16T01:53:36;15.15;;;10.93;;
39968;SDS011;25648;47.808;19.004;2022-10-16T01:56:03;16.52;;;10.32;;
39968;SDS011;25648;47.808;19.004;2022-10-16T02:01:04;19.85;;;12.05;;
39968;SDS011;25648;47.808;19.004;2022-10-16T02:03:34;14.52;;;11.27;;
39968;SDS011;25648;47.808;19.004;2022-10-16T02:06:02;16.63;;;11.00;;
39968;SDS011;25648;47.808;19.004;2022-10-16T02:08:28;15.25;;;10.10;;
39968;SDS011;25648;47.808;19.004;2022-10-16T02:10:56;17.75;;;11.35;;
39968;SDS011;25648;47.808;19.004;2022-10-16T02:13:23;17.35;;;11.00;;
39968;SDS011;25648;47.808;19.004;2022-10-16T02:15:59;14.50;;;10.77;;
39968;SDS011;25648;47.808;19.004;2022-10-16T02:18:25;16.83;;;10.82;;
39968;SDS011;25648;47.808;19.004;2022-10-16T02:20:58;13.15;;;10.35;;
39968;SDS011;25648;47.808;19.004;2022-10-16T02:23:29;16.63;;;11.02;;
39968;SDS011;25648;47.808;19.004;2022-10-16T02:26:07;18.08;;;10.48;;
39968;SDS011;25648;47.808;19.004;2022-10-16T02:28:46;16.75;;;11.02;;
39968;SDS011;25648;47.808;19.004;2022-10-16T02:31:20;17.83;;;11.02;;
39968;SDS011;25648;47.808;19.004;2022-10-16T02:33:51;18.48;;;11.52;;
39968;SDS011;25648;47.808;19.004;2022-10-16T02:36:19;17.23;;;10.90;;
39968;SDS011;25648;47.808;19.004;2022-10-16T02:38:46;16.75;;;10.52;;
39968;SDS011;25648;47.808;19.004;2022-10-16T02:41:12;15.95;;;10.70;;
39968;SDS011;25648;47.808;19.004;2022-10-16T02:43:39;14.82;;;10.38;;
39968;SDS011;25648;47.808;19.004;2022-10-16T02:46:05;14.90;;;10.50;;
39968;SDS011;25648;47.808;19.004;2022-10-16T02:48:31;15.50;;;10.57;;
39968;SDS011;25648;47.808;19.004;2022-10-16T02:50:56;14.27;;;10.23;;
39968;SDS011;25648;47.808;19.004;2022-10-16T02:53:22;15.07;;;9.93;;
39968;SDS011;25648;47.808;19.004;2022-10-16T02:55:48;19.23;;;10.23;;
39968;SDS011;25648;47.808;19.004;2022-10-16T02:58:13;13.43;;;10.60;;
39968;SDS011;25648;47.808;19.004;2022-10-16T03:00:39;14.30;;;9.60;;
39968;SDS011;25648;47.808;19.004;2022-10-16T03:03:05;15.30;;;10.20;;
39968;SDS011;25648;47.808;19.004;2022-10-16T03:05:30;15.27;;;11.25;;
39968;SDS011;25648;47.808;19.004;2022-10-16T03:07:56;15.65;;;10.30;;
39968;SDS011;25648;47.808;19.004;2022-10-16T03:10:24;16.38;;;10.45;;
39968;SDS011;25648;47.808;19.004;2022-10-16T03:12:50;14.63;;;10.57;;
39968;SDS011;25648;47.808;19.004;2022-10-16T03:15:16;18.25;;;11.23;;
39968;SDS011;25648;47.808;19.004;2022-10-16T03:17:42;16.63;;;11.15;;
39968;SDS011;25648;47.808;19.004;2022-10-16T03:20:08;15.43;;;10.82;;
39968;SDS011;25648;47.808;19.004;2022-10-16T03:22:34;17.33;;;11.02;;
39968;SDS011;25648;47.808;19.004;2022-10-16T03:24:59;17.52;;;10.43;;
39968;SDS011;25648;47.808;19.004;2022-10-16T03:27:25;15.10;;;10.77;;
39968;SDS011;25648;47.808;19.004;2022-10-16T03:29:51;15.57;;;11.02;;
39968;SDS011;25648;47.808;19.004;2022-10-16T03:32:17;15.57;;;10.93;;
39968;SDS011;25648;47.808;19.004;2022-10-16T03:34:43;16.52;;;11.32;;
39968;SDS011;25648;47.808;19.004;2022-10-16T03:37:09;16.92;;;11.38;;
39968;SDS011;25648;47.808;19.004;2022-10-16T03:39:34;18.15;;;11.90;;
39968;SDS011;25648;47.808;19.004;2022-10-16T03:42:00;16.92;;;12.18;;
39968;SDS011;25648;47.808;19.004;2022-10-16T03:44:26;17.40;;;11.57;;
39968;SDS011;25648;47.808;19.004;2022-10-16T03:46:51;18.45;;;12.30;;
39968;SDS011;25648;47.808;19.004;2022-10-16T03:49:17;21.92;;;12.65;;
39968;SDS011;25648;47.808;19.004;2022-10-16T03:51:43;19.58;;;13.30;;
39968;SDS011;25648;47.808;19.004;2022-10-16T03:54:09;16.05;;;12.07;;
39968;SDS011;25648;47.808;19.004;2022-10-16T03:56:35;16.80;;;11.38;;
39968;SDS011;25648;47.808;19.004;2022-10-16T03:59:01;14.75;;;11.23;;
39968;SDS011;25648;47.808;19.004;2022-10-16T04:01:26;16.00;;;10.55;;
39968;SDS011;25648;47.808;19.004;2022-10-16T04:03:52;15.40;;;10.68;;
39968;SDS011;25648;47.808;19.004;2022-10-16T04:06:18;13.98;;;10.27;;
39968;SDS011;25648;47.808;19.004;2022-10-16T04:08:43;15.98;;;10.90;;
39968;SDS011;25648;47.808;19.004;2022-10-16T04:11:09;15.20;;;11.15;;
39968;SDS011;25648;47.808;19.004;2022-10-16T04:13:35;17.55;;;11.32;;
39968;SDS011;25648;47.808;19.004;2022-10-16T04:16:01;16.50;;;11.50;;
39968;SDS011;25648;47.808;19.004;2022-10-16T04:18:27;17.17;;;11.23;;
39968;SDS011;25648;47.808;19.004;2022-10-16T04:20:53;15.60;;;11.55;;
39968;SDS011;25648;47.808;19.004;2022-10-16T04:23:19;17.98;;;11.85;;
39968;SDS011;25648;47.808;19.004;2022-10-16T04:25:45;17.52;;;12.10;;
39968;SDS011;25648;47.808;19.004;2022-10-16T04:28:10;16.90;;;11.63;;
39968;SDS011;25648;47.808;19.004;2022-10-16T04:30:37;17.73;;;12.13;;
39968;SDS011;25648;47.808;19.004;2022-10-16T04:33:04;18.90;;;12.75;;
39968;SDS011;25648;47.808;19.004;2022-10-16T04:35:29;18.65;;;12.38;;
39968;SDS011;25648;47.808;19.004;2022-10-16T04:37:57;17.25;;;12.57;;
39968;SDS011;25648;47.808;19.004;2022-10-16T04:40:23;16.83;;;12.50;;
39968;SDS011;25648;47.808;19.004;2022-10-16T04:42:49;18.48;;;12.73;;
39968;SDS011;25648;47.808;19.004;2022-10-16T04:45:14;19.98;;;13.93;;
39968;SDS011;25648;47.808;19.004;2022-10-16T04:47:40;20.55;;;13.50;;
39968;SDS011;25648;47.808;19.004;2022-10-16T04:50:06;15.73;;;12.00;;
39968;SDS011;25648;47.808;19.004;2022-10-16T04:52:32;15.95;;;11.50;;
39968;SDS011;25648;47.808;19.004;2022-10-16T04:54:58;17.23;;;12.98;;
39968;SDS011;25648;47.808;19.004;2022-10-16T04:57:26;17.80;;;12.10;;
39968;SDS011;25648;47.808;19.004;2022-10-16T04:59:53;21.70;;;13.40;;
39968;SDS011;25648;47.808;19.004;2022-10-16T05:02:18;19.05;;;14.38;;
39968;SDS011;25648;47.808;19.004;2022-10-16T05:04:44;19.98;;;14.48;;
39968;SDS011;25648;47.808;19.004;2022-10-16T05:07:10;20.67;;;14.82;;
39968;SDS011;25648;47.808;19.004;2022-10-16T05:09:35;22.27;;;15.10;;
39968;SDS011;25648;47.808;19.004;2022-10-16T05:12:01;22.13;;;14.73;;
39968;SDS011;25648;47.808;19.004;2022-10-16T05:14:28;20.58;;;14.35;;
39968;SDS011;25648;47.808;19.004;2022-10-16T05:16:54;26.25;;;15.27;;
39968;SDS011;25648;47.808;19.004;2022-10-16T05:19:20;20.88;;;14.30;;
39968;SDS011;25648;47.808;19.004;2022-10-16T05:21:45;21.35;;;14.75;;
39968;SDS011;25648;47.808;19.004;2022-10-16T05:24:11;23.52;;;15.23;;
39968;SDS011;25648;47.808;19.004;2022-10-16T05:26:37;23.33;;;14.98;;
39968;SDS011;25648;47.808;19.004;2022-10-16T05:29:03;23.60;;;15.80;;
39968;SDS011;25648;47.808;19.004;2022-10-16T05:31:28;22.77;;;15.55;;
39968;SDS011;25648;47.808;19.004;2022-10-16T05:34:00;21.50;;;14.90;;
39968;SDS011;25648;47.808;19.004;2022-10-16T05:36:26;20.67;;;14.07;;
39968;SDS011;25648;47.808;19.004;2022-10-16T05:38:52;19.67;;;14.45;;
39968;SDS011;25648;47.808;19.004;2022-10-16T05:41:18;22.85;;;14.13;;
39968;SDS011;25648;47.808;19.004;2022-10-16T05:43:47;19.98;;;13.45;;
39968;SDS011;25648;47.808;19.004;2022-10-16T05:46:20;19.92;;;14.10;;
39968;SDS011;25648;47.808;19.004;2022-10-16T05:48:46;19.27;;;13.52;;
39968;SDS011;25648;47.808;19.004;2022-10-16T05:51:12;18.77;;;13.43;;
39968;SDS011;25648;47.808;19.004;2022-10-16T05:53:40;17.55;;;13.27;;
39968;SDS011;25648;47.808;19.004;2022-10-16T05:56:07;20.95;;;14.30;;
39968;SDS011;25648;47.808;19.004;2022-10-16T05:58:35;19.15;;;13.75;;
39968;SDS011;25648;47.808;19.004;2022-10-16T06:01:06;19.27;;;12.23;;
39968;SDS011;25648;47.808;19.004;2022-10-16T06:03:36;22.08;;;12.35;;
39968;SDS011;25648;47.808;19.004;2022-10-16T06:06:12;19.65;;;12.70;;
39968;SDS011;25648;47.808;19.004;2022-10-16T06:08:40;19.05;;;12.30;;
39968;SDS011;25648;47.808;19.004;2022-10-16T06:11:08;15.13;;;11.85;;
39968;SDS011;25648;47.808;19.004;2022-10-16T06:13:35;19.48;;;12.43;;
39968;SDS011;25648;47.808;19.004;2022-10-16T06:16:01;18.08;;;11.60;;
39968;SDS011;25648;47.808;19.004;2022-10-16T06:18:28;16.83;;;11.23;;
39968;SDS011;25648;47.808;19.004;2022-10-16T06:20:54;15.88;;;11.10;;
39968;SDS011;25648;47.808;19.004;2022-10-16T06:23:21;16.00;;;10.55;;
39968;SDS011;25648;47.808;19.004;2022-10-16T06:25:47;16.23;;;11.52;;
39968;SDS011;25648;47.808;19.004;2022-10-16T06:28:13;17.60;;;11.27;;
39968;SDS011;25648;47.808;19.004;2022-10-16T06:30:39;15.32;;;11.20;;
39968;SDS011;25648;47.808;19.004;2022-10-16T06:33:09;15.80;;;11.05;;
39968;SDS011;25648;47.808;19.004;2022-10-16T06:35:35;16.88;;;10.40;;
39968;SDS011;25648;47.808;19.004;2022-10-16T06:38:01;17.60;;;10.50;;
39968;SDS011;25648;47.808;19.004;2022-10-16T06:40:27;16.02;;;10.45;;
39968;SDS011;25648;47.808;19.004;2022-10-16T06:42:54;15.15;;;10.40;;
39968;SDS011;25648;47.808;19.004;2022-10-16T06:45:20;14.52;;;11.05;;
39968;SDS011;25648;47.808;19.004;2022-10-16T06:47:46;14.57;;;10.35;;
39968;SDS011;25648;47.808;19.004;2022-10-16T06:50:11;17.80;;;10.48;;
39968;SDS011;25648;47.808;19.004;2022-10-16T06:52:37;19.00;;;10.77;;
39968;SDS011;25648;47.808;19.004;2022-10-16T06:55:03;18.35;;;11.48;;
39968;SDS011;25648;47.808;19.004;2022-10-16T06:57:29;17.58;;;11.45;;
39968;SDS011;25648;47.808;19.004;2022-10-16T06:59:55;18.02;;;10.70;;
39968;SDS011;25648;47.808;19.004;2022-10-16T07:02:20;15.95;;;11.15;;
39968;SDS011;25648;47.808;19.004;2022-10-16T07:04:46;17.15;;;11.52;;
39968;SDS011;25648;47.808;19.004;2022-10-16T07:07:11;17.80;;;11.52;;
39968;SDS011;25648;47.808;19.004;2022-10-16T07:09:37;14.50;;;10.25;;
39968;SDS011;25648;47.808;19.004;2022-10-16T07:12:03;14.10;;;9.43;;
39968;SDS011;25648;47.808;19.004;2022-10-16T07:14:29;14.57;;;10.45;;
39968;SDS011;25648;47.808;19.004;2022-10-16T07:16:55;16.67;;;10.90;;
39968;SDS011;25648;47.808;19.004;2022-10-16T07:19:20;15.40;;;9.95;;
39968;SDS011;25648;47.808;19.004;2022-10-16T07:21:46;18.38;;;10.32;;
39968;SDS011;25648;47.808;19.004;2022-10-16T07:24:13;14.25;;;10.10;;
39968;SDS011;25648;47.808;19.004;2022-10-16T07:26:40;13.73;;;10.15;;
39968;SDS011;25648;47.808;19.004;2022-10-16T07:29:11;14.82;;;11.00;;
39968;SDS011;25648;47.808;19.004;2022-10-16T07:31:42;16.60;;;10.32;;
39968;SDS011;25648;47.808;19.004;2022-10-16T07:34:09;15.90;;;10.00;;
39968;SDS011;25648;47.808;19.004;2022-10-16T07:36:36;15.98;;;10.50;;
39968;SDS011;25648;47.808;19.004;2022-10-16T07:39:01;14.90;;;9.63;;
39968;SDS011;25648;47.808;19.004;2022-10-16T07:41:27;15.52;;;9.95;;
39968;SDS011;25648;47.808;19.004;2022-10-16T07:43:53;13.38;;;9.75;;
39968;SDS011;25648;47.808;19.004;2022-10-16T07:46:20;13.93;;;9.13;;
39968;SDS011;25648;47.808;19.004;2022-10-16T07:48:47;14.07;;;9.43;;
39968;SDS011;25648;47.808;19.004;2022-10-16T07:51:17;15.88;;;9.15;;
39968;SDS011;25648;47.808;19.004;2022-10-16T07:53:44;12.82;;;9.10;;
39968;SDS011;25648;47.808;19.004;2022-10-16T07:56:10;11.82;;;8.98;;
39968;SDS011;25648;47.808;19.004;2022-10-16T07:58:36;13.90;;;8.45;;
39968;SDS011;25648;47.808;19.004;2022-10-16T08:01:06;11.90;;;8.40;;
39968;SDS011;25648;47.808;19.004;2022-10-16T08:03:33;13.63;;;9.20;;
39968;SDS011;25648;47.808;19.004;2022-10-16T08:05:59;13.35;;;9.23;;
39968;SDS011;25648;47.808;19.004;2022-10-16T08:08:26;16.27;;;9.07;;
39968;SDS011;25648;47.808;19.004;2022-10-16T08:10:53;13.93;;;9.57;;
39968;SDS011;25648;47.808;19.004;2022-10-16T08:13:18;12.38;;;8.90;;
39968;SDS011;25648;47.808;19.004;2022-10-16T08:15:45;12.68;;;8.85;;
39968;SDS011;25648;47.808;19.004;2022-10-16T08:18:11;12.10;;;8.65;;
39968;SDS011;25648;47.808;19.004;2022-10-16T08:20:38;13.85;;;8.85;;
39968;SDS011;25648;47.808;19.004;2022-10-16T08:23:05;14.50;;;8.50;;
39968;SDS011;25648;47.808;19.004;2022-10-16T08:25:37;13.00;;;8.65;;
39968;SDS011;25648;47.808;19.004;2022-10-16T08:28:11;13.15;;;8.80;;
39968;SDS011;25648;47.808;19.004;2022-10-16T08:30:37;14.35;;;9.23;;
39968;SDS011;25648;47.808;19.004;2022-10-16T08:33:03;14.38;;;8.98;;
39968;SDS011;25648;47.808;19.004;2022-10-16T08:35:29;15.73;;;9.60;;
39968;SDS011;25648;47.808;19.004;2022-10-16T08:37:55;17.80;;;9.75;;
39968;SDS011;25648;47.808;19.004;2022-10-16T08:48:30;13.35;;;8.77;;
39968;SDS011;25648;47.808;19.004;2022-10-16T08:51:12;11.68;;;8.07;;
39968;SDS011;25648;47.808;19.004;2022-10-16T08:54:03;11.70;;;8.23;;
39968;SDS011;25648;47.808;19.004;2022-10-16T08:56:31;13.07;;;9.07;;
39968;SDS011;25648;47.808;19.004;2022-10-16T08:58:58;14.18;;;8.85;;
39968;SDS011;25648;47.808;19.004;2022-10-16T09:01:27;14.10;;;8.93;;
39968;SDS011;25648;47.808;19.004;2022-10-16T09:06:49;14.10;;;9.23;;
39968;SDS011;25648;47.808;19.004;2022-10-16T09:09:23;15.07;;;8.57;;
39968;SDS011;25648;47.808;19.004;2022-10-16T09:12:00;13.27;;;8.70;;
39968;SDS011;25648;47.808;19.004;2022-10-16T09:20:13;13.60;;;8.82;;
39968;SDS011;25648;47.808;19.004;2022-10-16T09:25:29;13.10;;;9.10;;
39968;SDS011;25648;47.808;19.004;2022-10-16T09:27:56;12.98;;;8.82;;
39968;SDS011;25648;47.808;19.004;2022-10-16T09:30:21;15.00;;;9.43;;
39968;SDS011;25648;47.808;19.004;2022-10-16T09:32:51;14.43;;;8.45;;
39968;SDS011;25648;47.808;19.004;2022-10-16T09:35:31;13.10;;;9.38;;
39968;SDS011;25648;47.808;19.004;2022-10-16T09:38:00;12.30;;;8.48;;
39968;SDS011;25648;47.808;19.004;2022-10-16T09:40:30;17.77;;;8.98;;
39968;SDS011;25648;47.808;19.004;2022-10-16T09:43:01;12.57;;;8.60;;
39968;SDS011;25648;47.808;19.004;2022-10-16T09:45:35;13.18;;;8.98;;
39968;SDS011;25648;47.808;19.004;2022-10-16T09:48:01;13.45;;;8.80;;
39968;SDS011;25648;47.808;19.004;2022-10-16T09:50:36;12.32;;;8.77;;
39968;SDS011;25648;47.808;19.004;2022-10-16T09:53:11;14.05;;;9.05;;
39968;SDS011;25648;47.808;19.004;2022-10-16T09:55:56;10.68;;;8.60;;
39968;SDS011;25648;47.808;19.004;2022-10-16T09:58:22;12.82;;;9.02;;
39968;SDS011;25648;47.808;19.004;2022-10-16T10:00:50;13.32;;;8.93;;
39968;SDS011;25648;47.808;19.004;2022-10-16T10:03:51;11.35;;;8.13;;
39968;SDS011;25648;47.808;19.004;2022-10-16T10:06:22;19.73;;;8.38;;
39968;SDS011;25648;47.808;19.004;2022-10-16T10:08:54;11.48;;;8.75;;
39968;SDS011;25648;47.808;19.004;2022-10-16T10:17:17;14.18;;;9.02;;
39968;SDS011;25648;47.808;19.004;2022-10-16T10:19:49;12.95;;;9.02;;
39968;SDS011;25648;47.808;19.004;2022-10-16T10:22:44;15.55;;;9.45;;
39968;SDS011;25648;47.808;19.004;2022-10-16T10:27:50;12.38;;;8.90;;
39968;SDS011;25648;47.808;19.004;2022-10-16T10:38:53;13.43;;;8.98;;
39968;SDS011;25648;47.808;19.004;2022-10-16T10:57:31;11.88;;;8.07;;
39968;SDS011;25648;47.808;19.004;2022-10-16T11:02:54;15.02;;;8.45;;
39968;SDS011;25648;47.808;19.004;2022-10-16T11:08:26;13.07;;;7.70;;
39968;SDS011;25648;47.808;19.004;2022-10-16T11:11:03;15.55;;;8.57;;
39968;SDS011;25648;47.808;19.004;2022-10-16T11:13:42;13.60;;;8.38;;
39968;SDS011;25648;47.808;19.004;2022-10-16T11:21:12;11.13;;;7.70;;
39968;SDS011;25648;47.808;19.004;2022-10-16T11:23:49;12.07;;;7.90;;
39968;SDS011;25648;47.808;19.004;2022-10-16T11:26:27;11.15;;;8.10;;
39968;SDS011;25648;47.808;19.004;2022-10-16T11:28:58;11.35;;;8.00;;
39968;SDS011;25648;47.808;19.004;2022-10-16T11:31:39;11.32;;;7.68;;
39968;SDS011;25648;47.808;19.004;2022-10-16T11:34:51;12.80;;;7.90;;
39968;SDS011;25648;47.808;19.004;2022-10-16T11:45:41;10.90;;;7.22;;
39968;SDS011;25648;47.808;19.004;2022-10-16T11:51:02;9.48;;;6.32;;
39968;SDS011;25648;47.808;19.004;2022-10-16T11:53:45;9.35;;;7.18;;
39968;SDS011;25648;47.808;19.004;2022-10-16T11:56:19;8.88;;;6.90;;
39968;SDS011;25648;47.808;19.004;2022-10-16T11:58:54;11.88;;;6.72;;
39968;SDS011;25648;47.808;19.004;2022-10-16T12:07:14;9.70;;;6.20;;
39968;SDS011;25648;47.808;19.004;2022-10-16T12:09:49;9.13;;;5.93;;
39968;SDS011;25648;47.808;19.004;2022-10-16T12:15:00;10.00;;;5.82;;
39968;SDS011;25648;47.808;19.004;2022-10-16T12:17:37;9.68;;;5.65;;
39968;SDS011;25648;47.808;19.004;2022-10-16T12:22:41;8.25;;;6.13;;
39968;SDS011;25648;47.808;19.004;2022-10-16T12:25:19;10.23;;;5.80;;
39968;SDS011;25648;47.808;19.004;2022-10-16T12:27:53;9.10;;;6.00;;
39968;SDS011;25648;47.808;19.004;2022-10-16T12:30:24;8.88;;;5.53;;
39968;SDS011;25648;47.808;19.004;2022-10-16T12:33:34;10.23;;;5.82;;
39968;SDS011;25648;47.808;19.004;2022-10-16T12:35:48;8.68;;;5.90;;
39968;SDS011;25648;47.808;19.004;2022-10-16T12:38:18;8.63;;;5.57;;
39968;SDS011;25648;47.808;19.004;2022-10-16T12:41:23;9.60;;;5.68;;
39968;SDS011;25648;47.808;19.004;2022-10-16T12:43:50;10.93;;;6.60;;
39968;SDS011;25648;47.808;19.004;2022-10-16T12:48:42;11.73;;;6.88;;
39968;SDS011;25648;47.808;19.004;2022-10-16T12:54:04;9.75;;;5.68;;
39968;SDS011;25648;47.808;19.004;2022-10-16T13:07:51;13.35;;;6.80;;
39968;SDS011;25648;47.808;19.004;2022-10-16T13:29:10;11.75;;;6.00;;
39968;SDS011;25648;47.808;19.004;2022-10-16T13:31:38;9.70;;;5.85;;
39968;SDS011;25648;47.808;19.004;2022-10-16T13:34:04;7.70;;;5.82;;
39968;SDS011;25648;47.808;19.004;2022-10-16T13:36:35;8.75;;;5.78;;
39968;SDS011;25648;47.808;19.004;2022-10-16T13:39:14;12.20;;;5.65;;
39968;SDS011;25648;47.808;19.004;2022-10-16T13:42:03;19.98;;;6.78;;
39968;SDS011;25648;47.808;19.004;2022-10-16T13:44:48;8.95;;;6.00;;
39968;SDS011;25648;47.808;19.004;2022-10-16T13:47:17;12.90;;;6.75;;
39968;SDS011;25648;47.808;19.004;2022-10-16T13:49:43;9.38;;;5.93;;
39968;SDS011;25648;47.808;19.004;2022-10-16T13:52:19;12.18;;;5.80;;
39968;SDS011;25648;47.808;19.004;2022-10-16T13:54:46;12.77;;;6.20;;
39968;SDS011;25648;47.808;19.004;2022-10-16T13:57:15;8.27;;;5.75;;
39968;SDS011;25648;47.808;19.004;2022-10-16T13:59:42;9.75;;;6.40;;
39968;SDS011;25648;47.808;19.004;2022-10-16T14:02:30;10.75;;;5.70;;
39968;SDS011;25648;47.808;19.004;2022-10-16T14:04:56;12.65;;;6.07;;
39968;SDS011;25648;47.808;19.004;2022-10-16T14:07:28;11.90;;;5.82;;
39968;SDS011;25648;47.808;19.004;2022-10-16T14:10:05;11.13;;;6.45;;
39968;SDS011;25648;47.808;19.004;2022-10-16T14:12:43;10.05;;;5.85;;
39968;SDS011;25648;47.808;19.004;2022-10-16T14:15:15;85.38;;;8.15;;
39968;SDS011;25648;47.808;19.004;2022-10-16T14:17:43;17.35;;;7.13;;
39968;SDS011;25648;47.808;19.004;2022-10-16T14:20:15;15.18;;;6.60;;
39968;SDS011;25648;47.808;19.004;2022-10-16T14:22:41;8.05;;;6.05;;
39968;SDS011;25648;47.808;19.004;2022-10-16T14:31:19;18.67;;;6.57;;
39968;SDS011;25648;47.808;19.004;2022-10-16T14:33:46;34.83;;;7.43;;
39968;SDS011;25648;47.808;19.004;2022-10-16T14:36:13;18.60;;;6.75;;
39968;SDS011;25648;47.808;19.004;2022-10-16T14:39:03;11.93;;;6.65;;
39968;SDS011;25648;47.808;19.004;2022-10-16T14:41:28;11.40;;;6.47;;
39968;SDS011;25648;47.808;19.004;2022-10-16T14:44:01;16.20;;;7.15;;
39968;SDS011;25648;47.808;19.004;2022-10-16T14:46:33;18.05;;;6.53;;
39968;SDS011;25648;47.808;19.004;2022-10-16T14:49:13;18.02;;;6.85;;
39968;SDS011;25648;47.808;19.004;2022-10-16T14:51:42;16.08;;;6.85;;
39968;SDS011;25648;47.808;19.004;2022-10-16T14:54:10;10.68;;;6.47;;
39968;SDS011;25648;47.808;19.004;2022-10-16T14:56:55;12.98;;;7.20;;
39968;SDS011;25648;47.808;19.004;2022-10-16T14:59:39;23.80;;;6.80;;
39968;SDS011;25648;47.808;19.004;2022-10-16T15:02:16;17.98;;;6.97;;
39968;SDS011;25648;47.808;19.004;2022-10-16T15:04:53;24.60;;;7.32;;
39968;SDS011;25648;47.808;19.004;2022-10-16T15:07:18;21.80;;;7.82;;
39968;SDS011;25648;47.808;19.004;2022-10-16T15:09:44;22.15;;;6.65;;
39968;SDS011;25648;47.808;19.004;2022-10-16T15:12:10;13.98;;;6.95;;
39968;SDS011;25648;47.808;19.004;2022-10-16T15:14:35;15.10;;;7.07;;
39968;SDS011;25648;47.808;19.004;2022-10-16T15:17:01;17.58;;;8.00;;
39968;SDS011;25648;47.808;19.004;2022-10-16T15:19:27;21.58;;;10.10;;
39968;SDS011;25648;47.808;19.004;2022-10-16T15:21:53;21.40;;;10.95;;
39968;SDS011;25648;47.808;19.004;2022-10-16T15:24:19;23.83;;;12.07;;
39968;SDS011;25648;47.808;19.004;2022-10-16T15:26:44;19.08;;;10.85;;
39968;SDS011;25648;47.808;19.004;2022-10-16T15:29:14;19.27;;;10.05;;
39968;SDS011;25648;47.808;19.004;2022-10-16T15:31:40;14.98;;;9.52;;
39968;SDS011;25648;47.808;19.004;2022-10-16T15:34:08;15.27;;;8.63;;
39968;SDS011;25648;47.808;19.004;2022-10-16T15:36:35;13.32;;;9.80;;
39968;SDS011;25648;47.808;19.004;2022-10-16T15:39:08;18.38;;;9.60;;
39968;SDS011;25648;47.808;19.004;2022-10-16T15:41:41;16.60;;;9.95;;
39968;SDS011;25648;47.808;19.004;2022-10-16T15:44:08;23.98;;;11.70;;
39968;SDS011;25648;47.808;19.004;2022-10-16T15:46:33;24.98;;;11.55;;
39968;SDS011;25648;47.808;19.004;2022-10-16T15:49:00;22.90;;;11.80;;
39968;SDS011;25648;47.808;19.004;2022-10-16T15:51:26;29.10;;;15.50;;
39968;SDS011;25648;47.808;19.004;2022-10-16T15:53:57;60.42;;;32.83;;
39968;SDS011;25648;47.808;19.004;2022-10-16T15:56:24;54.10;;;30.17;;
39968;SDS011;25648;47.808;19.004;2022-10-16T15:58:51;26.88;;;16.13;;
39968;SDS011;25648;47.808;19.004;2022-10-16T16:01:18;22.50;;;16.15;;
39968;SDS011;25648;47.808;19.004;2022-10-16T16:03:44;27.20;;;18.15;;
39968;SDS011;25648;47.808;19.004;2022-10-16T16:06:11;29.77;;;18.52;;
39968;SDS011;25648;47.808;19.004;2022-10-16T16:08:38;26.45;;;15.38;;
39968;SDS011;25648;47.808;19.004;2022-10-16T16:11:05;36.97;;;19.52;;
39968;SDS011;25648;47.808;19.004;2022-10-16T16:13:32;38.75;;;20.85;;
39968;SDS011;25648;47.808;19.004;2022-10-16T16:15:58;36.50;;;21.23;;
39968;SDS011;25648;47.808;19.004;2022-10-16T16:18:24;35.35;;;21.00;;
39968;SDS011;25648;47.808;19.004;2022-10-16T16:20:51;34.22;;;21.08;;
39968;SDS011;25648;47.808;19.004;2022-10-16T16:23:18;42.50;;;22.50;;
39968;SDS011;25648;47.808;19.004;2022-10-16T16:25:44;36.72;;;24.25;;
39968;SDS011;25648;47.808;19.004;2022-10-16T16:28:10;39.92;;;24.40;;
39968;SDS011;25648;47.808;19.004;2022-10-16T16:30:39;41.85;;;25.33;;
39968;SDS011;25648;47.808;19.004;2022-10-16T16:33:06;32.75;;;23.67;;
39968;SDS011;25648;47.808;19.004;2022-10-16T16:35:34;30.38;;;19.92;;
39968;SDS011;25648;47.808;19.004;2022-10-16T16:37:59;32.42;;;21.25;;
39968;SDS011;25648;47.808;19.004;2022-10-16T16:40:26;38.38;;;23.20;;
39968;SDS011;25648;47.808;19.004;2022-10-16T16:42:52;54.88;;;32.08;;
39968;SDS011;25648;47.808;19.004;2022-10-16T16:45:17;52.30;;;31.02;;
39968;SDS011;25648;47.808;19.004;2022-10-16T16:47:43;60.90;;;33.28;;
39968;SDS011;25648;47.808;19.004;2022-10-16T16:50:09;53.03;;;33.10;;
39968;SDS011;25648;47.808;19.004;2022-10-16T16:52:35;55.17;;;31.05;;